sensor_id;sensor_type;location;lat;lon;timestamp;temperature;humidity
31038;DHT22;17702;47.590;7.666;2023-04-29T00:00:03;15.30;99.90
31038;DHT22;17702;47.590;7.666;2023-04-29T00:02:31;15.30;99.90
31038;DHT22;17702;47.590;7.666;2023-04-29T00:04:56;15.20;99.90
31038;DHT22;17702;47.590;7.666;2023-04-29T00:07:22;15.20;99.90
31038;DHT22;17702;47.590;7.666;2023-04-29T00:09:47;15.20;99.90
31038;DHT22;17702;47.590;7.666;2023-04-29T00:12:13;15.10;99.90
31038;DHT22;17702;47.590;7.666;2023-04-29T00:14:39;15.10;99.90
31038;DHT22;17702;47.590;7.666;2023-04-29T00:17:05;15.00;99.90
31038;DHT22;17702;47.590;7.666;2023-04-29T00:19:30;15.00;99.90
31038;DHT22;17702;47.590;7.666;2023-04-29T00:21:56;15.10;99.90
31038;DHT22;17702;47.590;7.666;2023-04-29T00:24:21;15.00;99.90
31038;DHT22;17702;47.590;7.666;2023-04-29T00:26:47;15.00;99.90
31038;DHT22;17702;47.590;7.666;2023-04-29T00:29:13;15.00;99.90
31038;DHT22;17702;47.590;7.666;2023-04-29T00:31:38;15.00;99.90
31038;DHT22;17702;47.590;7.666;2023-04-29T00:34:03;15.00;99.90
31038;DHT22;17702;47.590;7.666;2023-04-29T00:36:29;14.90;99.90
31038;DHT22;17702;47.590;7.666;2023-04-29T00:38:56;14.90;99.90
31038;DHT22;17702;47.590;7.666;2023-04-29T00:41:21;14.80;99.90
31038;DHT22;17702;47.590;7.666;2023-04-29T00:43:47;14.80;99.90
31038;DHT22;17702;47.590;7.666;2023-04-29T00:46:13;14.80;99.90
31038;DHT22;17702;47.590;7.666;2023-04-29T00:48:38;14.80;99.90
31038;DHT22;17702;47.590;7.666;2023-04-29T00:51:05;14.80;99.90
31038;DHT22;17702;47.590;7.666;2023-04-29T00:53:31;14.80;99.90
31038;DHT22;17702;47.590;7.666;2023-04-29T00:55:57;14.80;99.90
31038;DHT22;17702;47.590;7.666;2023-04-29T00:58:25;14.80;99.90
31038;DHT22;17702;47.590;7.666;2023-04-29T01:00:58;14.70;99.90
31038;DHT22;17702;47.590;7.666;2023-04-29T01:03:23;14.70;99.90
31038;DHT22;17702;47.590;7.666;2023-04-29T01:05:50;14.60;99.90
31038;DHT22;17702;47.590;7.666;2023-04-29T01:10:54;14.60;99.90
31038;DHT22;17702;47.590;7.666;2023-04-29T01:18:19;14.60;99.90
31038;DHT22;17702;47.590;7.666;2023-04-29T01:20:48;14.60;99.90
31038;DHT22;17702;47.590;7.666;2023-04-29T01:23:14;14.50;99.90
31038;DHT22;17702;47.590;7.666;2023-04-29T01:25:39;14.50;99.90
31038;DHT22;17702;47.590;7.666;2023-04-29T01:33:02;14.70;99.90
31038;DHT22;17702;47.590;7.666;2023-04-29T01:35:43;14.70;99.90
31038;DHT22;17702;47.590;7.666;2023-04-29T01:40:42;14.70;99.90
31038;DHT22;17702;47.590;7.666;2023-04-29T01:43:08;14.70;99.90
31038;DHT22;17702;47.590;7.666;2023-04-29T01:45:37;14.60;99.90
31038;DHT22;17702;47.590;7.666;2023-04-29T01:48:05;14.50;99.90
31038;DHT22;17702;47.590;7.666;2023-04-29T01:50:31;14.50;99.90
31038;DHT22;17702;47.590;7.666;2023-04-29T01:52:57;14.50;99.90
31038;DHT22;17702;47.590;7.666;2023-04-29T01:55:22;14.50;99.90
31038;DHT22;17702;47.590;7.666;2023-04-29T01:57:48;14.40;99.90
31038;DHT22;17702;47.590;7.666;2023-04-29T02:00:13;14.40;99.90
31038;DHT22;17702;47.590;7.666;2023-04-29T02:02:39;14.40;99.90
31038;DHT22;17702;47.590;7.666;2023-04-29T02:05:05;14.40;99.90
31038;DHT22;17702;47.590;7.666;2023-04-29T02:07:30;14.40;99.90
31038;DHT22;17702;47.590;7.666;2023-04-29T02:09:56;14.40;99.90
31038;DHT22;17702;47.590;7.666;2023-04-29T02:12:21;14.30;99.90
31038;DHT22;17702;47.590;7.666;2023-04-29T02:14:50;14.40;99.90
31038;DHT22;17702;47.590;7.666;2023-04-29T02:17:16;14.30;99.90
31038;DHT22;17702;47.590;7.666;2023-04-29T02:19:42;14.30;99.90
31038;DHT22;17702;47.590;7.666;2023-04-29T02:22:07;14.30;99.90
31038;DHT22;17702;47.590;7.666;2023-04-29T02:24:33;14.30;99.90
31038;DHT22;17702;47.590;7.666;2023-04-29T02:26:59;14.30;99.90
31038;DHT22;17702;47.590;7.666;2023-04-29T02:29:25;14.30;99.90
31038;DHT22;17702;47.590;7.666;2023-04-29T02:31:51;14.30;99.90
31038;DHT22;17702;47.590;7.666;2023-04-29T02:34:16;14.30;99.90
31038;DHT22;17702;47.590;7.666;2023-04-29T02:36:42;14.30;99.90
31038;DHT22;17702;47.590;7.666;2023-04-29T02:39:08;14.40;99.90
31038;DHT22;17702;47.590;7.666;2023-04-29T02:41:33;14.30;99.90
31038;DHT22;17702;47.590;7.666;2023-04-29T02:43:59;14.30;99.90
31038;DHT22;17702;47.590;7.666;2023-04-29T02:46:24;14.30;99.90
31038;DHT22;17702;47.590;7.666;2023-04-29T02:48:50;14.20;99.90
31038;DHT22;17702;47.590;7.666;2023-04-29T02:51:15;14.30;99.90
31038;DHT22;17702;47.590;7.666;2023-04-29T02:53:41;14.30;99.90
31038;DHT22;17702;47.590;7.666;2023-04-29T02:56:06;14.20;99.90
31038;DHT22;17702;47.590;7.666;2023-04-29T02:58:32;14.20;99.90
31038;DHT22;17702;47.590;7.666;2023-04-29T03:00:57;14.20;99.90
31038;DHT22;17702;47.590;7.666;2023-04-29T03:03:23;14.30;99.90
31038;DHT22;17702;47.590;7.666;2023-04-29T03:05:48;14.30;99.90
31038;DHT22;17702;47.590;7.666;2023-04-29T03:08:14;14.30;99.90
31038;DHT22;17702;47.590;7.666;2023-04-29T03:10:40;14.20;99.90
31038;DHT22;17702;47.590;7.666;2023-04-29T03:13:05;14.20;99.90
31038;DHT22;17702;47.590;7.666;2023-04-29T03:15:31;14.10;99.90
31038;DHT22;17702;47.590;7.666;2023-04-29T03:17:56;14.20;99.90
31038;DHT22;17702;47.590;7.666;2023-04-29T03:20:26;14.10;99.90
31038;DHT22;17702;47.590;7.666;2023-04-29T03:22:51;14.20;99.90
31038;DHT22;17702;47.590;7.666;2023-04-29T03:25:17;14.20;99.90
31038;DHT22;17702;47.590;7.666;2023-04-29T03:27:42;14.10;99.90
31038;DHT22;17702;47.590;7.666;2023-04-29T03:30:08;14.10;99.90
31038;DHT22;17702;47.590;7.666;2023-04-29T03:32:34;14.10;99.90
31038;DHT22;17702;47.590;7.666;2023-04-29T03:34:59;14.10;99.90
31038;DHT22;17702;47.590;7.666;2023-04-29T03:37:25;14.10;99.90
31038;DHT22;17702;47.590;7.666;2023-04-29T03:39:50;14.10;99.90
31038;DHT22;17702;47.590;7.666;2023-04-29T03:42:16;14.10;99.90
31038;DHT22;17702;47.590;7.666;2023-04-29T03:44:41;14.00;99.90
31038;DHT22;17702;47.590;7.666;2023-04-29T03:47:07;14.00;99.90
31038;DHT22;17702;47.590;7.666;2023-04-29T03:49:32;14.00;99.90
31038;DHT22;17702;47.590;7.666;2023-04-29T03:51:58;13.90;99.90
31038;DHT22;17702;47.590;7.666;2023-04-29T03:54:23;13.90;99.90
31038;DHT22;17702;47.590;7.666;2023-04-29T03:56:49;13.80;99.90
31038;DHT22;17702;47.590;7.666;2023-04-29T03:59:14;13.70;99.90
31038;DHT22;17702;47.590;7.666;2023-04-29T04:01:40;13.70;99.90
31038;DHT22;17702;47.590;7.666;2023-04-29T04:04:05;13.70;99.90
31038;DHT22;17702;47.590;7.666;2023-04-29T04:06:31;13.70;99.90
31038;DHT22;17702;47.590;7.666;2023-04-29T04:08:56;13.60;99.90
31038;DHT22;17702;47.590;7.666;2023-04-29T04:11:22;13.60;99.90
31038;DHT22;17702;47.590;7.666;2023-04-29T04:13:47;13.60;99.90
31038;DHT22;17702;47.590;7.666;2023-04-29T04:16:14;13.50;99.90
31038;DHT22;17702;47.590;7.666;2023-04-29T04:18:39;13.60;99.90
31038;DHT22;17702;47.590;7.666;2023-04-29T04:21:08;13.50;99.90
31038;DHT22;17702;47.590;7.666;2023-04-29T04:23:34;13.60;99.90
31038;DHT22;17702;47.590;7.666;2023-04-29T04:25:59;13.50;99.90
31038;DHT22;17702;47.590;7.666;2023-04-29T04:28:25;13.50;99.90
31038;DHT22;17702;47.590;7.666;2023-04-29T04:30:50;13.50;99.90
31038;DHT22;17702;47.590;7.666;2023-04-29T04:33:16;13.40;99.90
31038;DHT22;17702;47.590;7.666;2023-04-29T04:35:41;13.40;99.90
31038;DHT22;17702;47.590;7.666;2023-04-29T04:38:07;13.40;99.90
31038;DHT22;17702;47.590;7.666;2023-04-29T04:40:33;13.30;99.90
31038;DHT22;17702;47.590;7.666;2023-04-29T04:42:59;13.30;99.90
31038;DHT22;17702;47.590;7.666;2023-04-29T04:45:26;13.30;99.90
31038;DHT22;17702;47.590;7.666;2023-04-29T04:47:52;13.40;99.90
31038;DHT22;17702;47.590;7.666;2023-04-29T04:50:18;13.40;99.90
31038;DHT22;17702;47.590;7.666;2023-04-29T04:52:44;13.30;99.90
31038;DHT22;17702;47.590;7.666;2023-04-29T04:55:10;13.20;99.90
31038;DHT22;17702;47.590;7.666;2023-04-29T04:57:35;13.30;99.90
31038;DHT22;17702;47.590;7.666;2023-04-29T05:00:01;13.40;99.90
31038;DHT22;17702;47.590;7.666;2023-04-29T05:02:28;13.30;99.90
31038;DHT22;17702;47.590;7.666;2023-04-29T05:04:53;13.30;99.90
31038;DHT22;17702;47.590;7.666;2023-04-29T05:07:19;13.30;99.90
31038;DHT22;17702;47.590;7.666;2023-04-29T05:09:45;13.30;99.90
31038;DHT22;17702;47.590;7.666;2023-04-29T05:12:10;13.30;99.90
31038;DHT22;17702;47.590;7.666;2023-04-29T05:14:36;13.40;99.90
31038;DHT22;17702;47.590;7.666;2023-04-29T05:17:01;13.40;99.90
31038;DHT22;17702;47.590;7.666;2023-04-29T05:19:27;13.60;99.90
31038;DHT22;17702;47.590;7.666;2023-04-29T05:21:52;13.50;99.90
31038;DHT22;17702;47.590;7.666;2023-04-29T05:24:18;13.60;99.90
31038;DHT22;17702;47.590;7.666;2023-04-29T05:26:43;13.60;99.90
31038;DHT22;17702;47.590;7.666;2023-04-29T05:29:09;13.60;99.90
31038;DHT22;17702;47.590;7.666;2023-04-29T05:31:35;13.70;99.90
31038;DHT22;17702;47.590;7.666;2023-04-29T05:34:00;13.60;99.90
31038;DHT22;17702;47.590;7.666;2023-04-29T05:36:26;13.60;99.90
31038;DHT22;17702;47.590;7.666;2023-04-29T05:38:52;13.70;99.90
31038;DHT22;17702;47.590;7.666;2023-04-29T05:41:17;13.80;99.90
31038;DHT22;17702;47.590;7.666;2023-04-29T05:43:43;13.80;99.90
31038;DHT22;17702;47.590;7.666;2023-04-29T05:46:08;13.70;99.90
31038;DHT22;17702;47.590;7.666;2023-04-29T05:48:34;13.70;99.90
31038;DHT22;17702;47.590;7.666;2023-04-29T05:50:59;13.80;99.90
31038;DHT22;17702;47.590;7.666;2023-04-29T05:53:25;13.90;99.90
31038;DHT22;17702;47.590;7.666;2023-04-29T05:55:51;14.00;99.90
31038;DHT22;17702;47.590;7.666;2023-04-29T05:58:16;14.10;99.90
31038;DHT22;17702;47.590;7.666;2023-04-29T06:00:42;14.10;99.90
31038;DHT22;17702;47.590;7.666;2023-04-29T06:03:08;14.20;99.90
31038;DHT22;17702;47.590;7.666;2023-04-29T06:05:35;14.30;99.90
31038;DHT22;17702;47.590;7.666;2023-04-29T06:08:00;14.30;99.90
31038;DHT22;17702;47.590;7.666;2023-04-29T06:10:26;14.40;99.90
31038;DHT22;17702;47.590;7.666;2023-04-29T06:12:52;14.40;99.90
31038;DHT22;17702;47.590;7.666;2023-04-29T06:15:17;14.40;99.90
31038;DHT22;17702;47.590;7.666;2023-04-29T06:17:43;14.40;99.90
31038;DHT22;17702;47.590;7.666;2023-04-29T06:20:08;14.50;99.90
31038;DHT22;17702;47.590;7.666;2023-04-29T06:22:34;14.50;99.90
31038;DHT22;17702;47.590;7.666;2023-04-29T06:25:00;14.60;99.90
31038;DHT22;17702;47.590;7.666;2023-04-29T06:27:25;14.60;99.90
31038;DHT22;17702;47.590;7.666;2023-04-29T06:29:51;14.70;99.90
31038;DHT22;17702;47.590;7.666;2023-04-29T06:32:16;14.70;99.90
31038;DHT22;17702;47.590;7.666;2023-04-29T06:34:42;14.80;99.90
31038;DHT22;17702;47.590;7.666;2023-04-29T06:37:07;15.00;99.90
31038;DHT22;17702;47.590;7.666;2023-04-29T06:39:33;15.10;99.90
31038;DHT22;17702;47.590;7.666;2023-04-29T06:41:58;15.20;99.90
31038;DHT22;17702;47.590;7.666;2023-04-29T06:44:24;15.30;99.90
31038;DHT22;17702;47.590;7.666;2023-04-29T06:46:50;15.40;99.90
31038;DHT22;17702;47.590;7.666;2023-04-29T06:49:15;15.50;99.90
31038;DHT22;17702;47.590;7.666;2023-04-29T06:51:41;15.50;99.90
31038;DHT22;17702;47.590;7.666;2023-04-29T06:54:07;15.50;99.90
31038;DHT22;17702;47.590;7.666;2023-04-29T06:56:32;15.50;99.90
31038;DHT22;17702;47.590;7.666;2023-04-29T06:58:58;15.60;99.90
31038;DHT22;17702;47.590;7.666;2023-04-29T07:01:23;15.70;99.90
31038;DHT22;17702;47.590;7.666;2023-04-29T07:03:49;15.80;99.90
31038;DHT22;17702;47.590;7.666;2023-04-29T07:06:14;15.90;99.90
31038;DHT22;17702;47.590;7.666;2023-04-29T07:08:40;16.00;99.90
31038;DHT22;17702;47.590;7.666;2023-04-29T07:11:05;16.10;99.90
31038;DHT22;17702;47.590;7.666;2023-04-29T07:13:31;16.20;99.90
31038;DHT22;17702;47.590;7.666;2023-04-29T07:15:56;16.30;99.90
31038;DHT22;17702;47.590;7.666;2023-04-29T07:18:22;16.30;99.90
31038;DHT22;17702;47.590;7.666;2023-04-29T07:20:47;16.40;99.90
31038;DHT22;17702;47.590;7.666;2023-04-29T07:23:15;16.50;99.90
31038;DHT22;17702;47.590;7.666;2023-04-29T07:25:40;16.50;99.90
31038;DHT22;17702;47.590;7.666;2023-04-29T07:28:06;16.50;99.90
31038;DHT22;17702;47.590;7.666;2023-04-29T07:30:33;16.50;99.90
31038;DHT22;17702;47.590;7.666;2023-04-29T07:32:58;16.50;99.90
31038;DHT22;17702;47.590;7.666;2023-04-29T07:35:24;16.50;99.90
31038;DHT22;17702;47.590;7.666;2023-04-29T07:37:50;16.50;99.90
31038;DHT22;17702;47.590;7.666;2023-04-29T07:40:16;16.50;99.90
31038;DHT22;17702;47.590;7.666;2023-04-29T07:42:42;16.60;99.90
31038;DHT22;17702;47.590;7.666;2023-04-29T07:45:07;16.70;99.90
31038;DHT22;17702;47.590;7.666;2023-04-29T07:47:33;16.80;99.90
31038;DHT22;17702;47.590;7.666;2023-04-29T07:49:58;16.80;99.90
31038;DHT22;17702;47.590;7.666;2023-04-29T07:52:24;16.90;99.90
31038;DHT22;17702;47.590;7.666;2023-04-29T07:54:49;16.90;99.90
31038;DHT22;17702;47.590;7.666;2023-04-29T07:57:15;17.00;99.90
31038;DHT22;17702;47.590;7.666;2023-04-29T07:59:40;17.10;99.90
31038;DHT22;17702;47.590;7.666;2023-04-29T08:02:06;17.40;99.90
31038;DHT22;17702;47.590;7.666;2023-04-29T08:04:32;17.70;99.90
31038;DHT22;17702;47.590;7.666;2023-04-29T08:06:57;17.90;99.90
31038;DHT22;17702;47.590;7.666;2023-04-29T08:09:23;17.90;99.90
31038;DHT22;17702;47.590;7.666;2023-04-29T08:11:48;18.00;99.90
31038;DHT22;17702;47.590;7.666;2023-04-29T08:14:14;18.00;99.90
31038;DHT22;17702;47.590;7.666;2023-04-29T08:16:39;17.90;99.90
31038;DHT22;17702;47.590;7.666;2023-04-29T08:19:05;17.80;99.90
31038;DHT22;17702;47.590;7.666;2023-04-29T08:21:30;17.70;99.90
31038;DHT22;17702;47.590;7.666;2023-04-29T08:23:56;17.70;99.90
31038;DHT22;17702;47.590;7.666;2023-04-29T08:26:22;17.60;99.90
31038;DHT22;17702;47.590;7.666;2023-04-29T08:28:48;17.70;99.90
31038;DHT22;17702;47.590;7.666;2023-04-29T08:31:20;17.90;99.90
31038;DHT22;17702;47.590;7.666;2023-04-29T08:33:45;18.10;99.90
31038;DHT22;17702;47.590;7.666;2023-04-29T08:36:11;18.30;99.90
31038;DHT22;17702;47.590;7.666;2023-04-29T08:38:36;18.50;99.90
31038;DHT22;17702;47.590;7.666;2023-04-29T08:41:02;18.60;99.90
31038;DHT22;17702;47.590;7.666;2023-04-29T08:43:27;18.80;99.90
31038;DHT22;17702;47.590;7.666;2023-04-29T08:45:53;19.00;99.90
31038;DHT22;17702;47.590;7.666;2023-04-29T08:48:19;19.30;99.90
31038;DHT22;17702;47.590;7.666;2023-04-29T08:50:45;19.50;99.90
31038;DHT22;17702;47.590;7.666;2023-04-29T08:53:12;19.80;99.90
31038;DHT22;17702;47.590;7.666;2023-04-29T08:55:41;19.80;99.90
31038;DHT22;17702;47.590;7.666;2023-04-29T08:58:09;19.70;99.90
31038;DHT22;17702;47.590;7.666;2023-04-29T09:00:35;19.50;99.90
31038;DHT22;17702;47.590;7.666;2023-04-29T09:03:03;19.50;99.90
31038;DHT22;17702;47.590;7.666;2023-04-29T09:05:35;19.60;99.90
31038;DHT22;17702;47.590;7.666;2023-04-29T09:08:01;19.70;99.90
31038;DHT22;17702;47.590;7.666;2023-04-29T09:10:27;20.00;99.90
31038;DHT22;17702;47.590;7.666;2023-04-29T09:12:56;20.20;99.90
31038;DHT22;17702;47.590;7.666;2023-04-29T09:15:22;20.20;99.90
31038;DHT22;17702;47.590;7.666;2023-04-29T09:17:48;20.10;99.90
31038;DHT22;17702;47.590;7.666;2023-04-29T09:22:49;20.30;99.90
31038;DHT22;17702;47.590;7.666;2023-04-29T09:25:14;20.60;99.90
31038;DHT22;17702;47.590;7.666;2023-04-29T09:27:40;20.90;99.90
31038;DHT22;17702;47.590;7.666;2023-04-29T09:30:07;20.90;99.90
31038;DHT22;17702;47.590;7.666;2023-04-29T09:32:32;21.00;99.90
31038;DHT22;17702;47.590;7.666;2023-04-29T09:34:58;21.10;99.90
31038;DHT22;17702;47.590;7.666;2023-04-29T09:37:24;21.10;99.90
31038;DHT22;17702;47.590;7.666;2023-04-29T09:39:50;21.20;99.90
31038;DHT22;17702;47.590;7.666;2023-04-29T09:42:16;21.20;99.90
31038;DHT22;17702;47.590;7.666;2023-04-29T09:44:41;21.10;99.90
31038;DHT22;17702;47.590;7.666;2023-04-29T09:47:08;21.10;99.90
31038;DHT22;17702;47.590;7.666;2023-04-29T09:49:35;21.10;99.90
31038;DHT22;17702;47.590;7.666;2023-04-29T09:52:03;21.00;99.90
31038;DHT22;17702;47.590;7.666;2023-04-29T09:54:29;21.10;99.80
31038;DHT22;17702;47.590;7.666;2023-04-29T09:56:56;21.20;99.90
31038;DHT22;17702;47.590;7.666;2023-04-29T09:59:22;21.20;99.80
31038;DHT22;17702;47.590;7.666;2023-04-29T10:01:48;21.20;98.10
31038;DHT22;17702;47.590;7.666;2023-04-29T10:04:14;21.10;98.40
31038;DHT22;17702;47.590;7.666;2023-04-29T10:06:40;21.10;99.00
31038;DHT22;17702;47.590;7.666;2023-04-29T10:09:07;21.10;98.40
31038;DHT22;17702;47.590;7.666;2023-04-29T10:11:35;21.20;99.50
31038;DHT22;17702;47.590;7.666;2023-04-29T10:14:01;21.40;99.90
31038;DHT22;17702;47.590;7.666;2023-04-29T10:16:29;21.50;99.10
31038;DHT22;17702;47.590;7.666;2023-04-29T10:18:55;21.50;98.00
31038;DHT22;17702;47.590;7.666;2023-04-29T10:21:27;21.60;98.90
31038;DHT22;17702;47.590;7.666;2023-04-29T10:23:56;21.60;96.00
31038;DHT22;17702;47.590;7.666;2023-04-29T10:26:25;21.70;97.70
31038;DHT22;17702;47.590;7.666;2023-04-29T10:28:51;21.80;98.00
31038;DHT22;17702;47.590;7.666;2023-04-29T10:31:17;21.90;95.50
31038;DHT22;17702;47.590;7.666;2023-04-29T10:33:44;21.90;97.00
31038;DHT22;17702;47.590;7.666;2023-04-29T10:36:12;22.00;96.10
31038;DHT22;17702;47.590;7.666;2023-04-29T10:38:39;22.00;93.90
31038;DHT22;17702;47.590;7.666;2023-04-29T10:41:08;22.10;95.90
31038;DHT22;17702;47.590;7.666;2023-04-29T10:43:34;22.10;95.00
31038;DHT22;17702;47.590;7.666;2023-04-29T10:46:16;22.20;95.00
31038;DHT22;17702;47.590;7.666;2023-04-29T10:48:45;22.40;95.40
31038;DHT22;17702;47.590;7.666;2023-04-29T10:51:11;22.50;95.00
31038;DHT22;17702;47.590;7.666;2023-04-29T10:56:21;22.40;94.10
31038;DHT22;17702;47.590;7.666;2023-04-29T10:58:46;22.40;93.20
31038;DHT22;17702;47.590;7.666;2023-04-29T11:01:15;22.50;92.00
31038;DHT22;17702;47.590;7.666;2023-04-29T11:03:54;22.50;88.70
31038;DHT22;17702;47.590;7.666;2023-04-29T11:06:24;22.40;91.80
31038;DHT22;17702;47.590;7.666;2023-04-29T11:12:00;22.70;90.30
31038;DHT22;17702;47.590;7.666;2023-04-29T11:16:56;22.80;90.60
31038;DHT22;17702;47.590;7.666;2023-04-29T11:19:30;22.80;89.80
31038;DHT22;17702;47.590;7.666;2023-04-29T11:22:41;22.90;84.50
31038;DHT22;17702;47.590;7.666;2023-04-29T11:24:55;23.10;88.90
31038;DHT22;17702;47.590;7.666;2023-04-29T11:27:22;23.10;86.70
31038;DHT22;17702;47.590;7.666;2023-04-29T11:29:50;23.20;87.30
31038;DHT22;17702;47.590;7.666;2023-04-29T11:32:19;23.20;84.80
31038;DHT22;17702;47.590;7.666;2023-04-29T11:34:44;23.30;80.30
31038;DHT22;17702;47.590;7.666;2023-04-29T11:37:10;23.30;84.10
31038;DHT22;17702;47.590;7.666;2023-04-29T11:39:35;23.30;81.20
31038;DHT22;17702;47.590;7.666;2023-04-29T11:42:04;23.30;83.20
31038;DHT22;17702;47.590;7.666;2023-04-29T11:44:32;23.30;84.10
31038;DHT22;17702;47.590;7.666;2023-04-29T11:47:04;23.30;84.20
31038;DHT22;17702;47.590;7.666;2023-04-29T11:49:30;23.30;83.10
31038;DHT22;17702;47.590;7.666;2023-04-29T11:51:57;23.40;80.60
31038;DHT22;17702;47.590;7.666;2023-04-29T11:54:24;23.40;79.60
31038;DHT22;17702;47.590;7.666;2023-04-29T11:56:51;23.50;82.20
31038;DHT22;17702;47.590;7.666;2023-04-29T11:59:18;23.60;83.40
31038;DHT22;17702;47.590;7.666;2023-04-29T12:01:43;23.60;80.20
31038;DHT22;17702;47.590;7.666;2023-04-29T12:04:09;23.70;78.80
31038;DHT22;17702;47.590;7.666;2023-04-29T12:06:34;23.80;75.90
31038;DHT22;17702;47.590;7.666;2023-04-29T12:09:00;23.80;79.50
31038;DHT22;17702;47.590;7.666;2023-04-29T12:11:28;23.70;77.50
31038;DHT22;17702;47.590;7.666;2023-04-29T12:13:54;23.70;80.80
31038;DHT22;17702;47.590;7.666;2023-04-29T12:16:20;23.80;79.30
31038;DHT22;17702;47.590;7.666;2023-04-29T12:18:49;23.80;76.30
31038;DHT22;17702;47.590;7.666;2023-04-29T12:21:15;23.90;76.60
31038;DHT22;17702;47.590;7.666;2023-04-29T12:23:40;24.00;76.20
31038;DHT22;17702;47.590;7.666;2023-04-29T12:26:06;24.10;77.20
31038;DHT22;17702;47.590;7.666;2023-04-29T12:28:32;24.20;77.20
31038;DHT22;17702;47.590;7.666;2023-04-29T12:30:57;24.30;77.40
31038;DHT22;17702;47.590;7.666;2023-04-29T12:33:24;24.20;75.00
31038;DHT22;17702;47.590;7.666;2023-04-29T12:35:53;24.20;71.80
31038;DHT22;17702;47.590;7.666;2023-04-29T12:38:29;24.30;74.50
31038;DHT22;17702;47.590;7.666;2023-04-29T12:40:58;24.30;69.60
31038;DHT22;17702;47.590;7.666;2023-04-29T12:43:28;24.30;70.30
31038;DHT22;17702;47.590;7.666;2023-04-29T12:45:59;24.20;70.30
31038;DHT22;17702;47.590;7.666;2023-04-29T12:48:28;24.20;73.70
31038;DHT22;17702;47.590;7.666;2023-04-29T12:50:53;24.20;72.10
31038;DHT22;17702;47.590;7.666;2023-04-29T12:53:22;24.20;72.80
31038;DHT22;17702;47.590;7.666;2023-04-29T12:55:48;24.00;71.70
31038;DHT22;17702;47.590;7.666;2023-04-29T12:58:13;23.90;73.30
31038;DHT22;17702;47.590;7.666;2023-04-29T13:00:39;23.80;72.30
31038;DHT22;17702;47.590;7.666;2023-04-29T13:03:05;23.80;71.80
31038;DHT22;17702;47.590;7.666;2023-04-29T13:05:31;23.80;72.80
31038;DHT22;17702;47.590;7.666;2023-04-29T13:07:56;23.80;72.30
31038;DHT22;17702;47.590;7.666;2023-04-29T13:10:22;23.80;72.40
31038;DHT22;17702;47.590;7.666;2023-04-29T13:12:47;23.90;71.70
31038;DHT22;17702;47.590;7.666;2023-04-29T13:15:13;23.80;71.70
31038;DHT22;17702;47.590;7.666;2023-04-29T13:17:39;23.80;70.00
31038;DHT22;17702;47.590;7.666;2023-04-29T13:20:05;23.80;68.80
31038;DHT22;17702;47.590;7.666;2023-04-29T13:22:32;23.80;71.40
31038;DHT22;17702;47.590;7.666;2023-04-29T13:24:58;23.70;71.20
31038;DHT22;17702;47.590;7.666;2023-04-29T13:27:24;23.70;72.10
31038;DHT22;17702;47.590;7.666;2023-04-29T13:29:49;23.60;69.00
31038;DHT22;17702;47.590;7.666;2023-04-29T13:32:15;23.50;71.60
31038;DHT22;17702;47.590;7.666;2023-04-29T13:34:41;23.50;71.40
31038;DHT22;17702;47.590;7.666;2023-04-29T13:37:08;23.30;71.90
31038;DHT22;17702;47.590;7.666;2023-04-29T13:39:33;23.30;71.60
31038;DHT22;17702;47.590;7.666;2023-04-29T13:42:00;23.20;71.10
31038;DHT22;17702;47.590;7.666;2023-04-29T13:44:25;23.20;73.30
31038;DHT22;17702;47.590;7.666;2023-04-29T13:46:51;23.10;72.10
31038;DHT22;17702;47.590;7.666;2023-04-29T13:49:17;23.10;72.40
31038;DHT22;17702;47.590;7.666;2023-04-29T13:51:42;23.20;74.10
31038;DHT22;17702;47.590;7.666;2023-04-29T13:54:08;23.20;72.50
31038;DHT22;17702;47.590;7.666;2023-04-29T13:56:33;23.10;71.80
31038;DHT22;17702;47.590;7.666;2023-04-29T13:58:59;23.10;72.40
31038;DHT22;17702;47.590;7.666;2023-04-29T14:01:24;23.00;73.40
31038;DHT22;17702;47.590;7.666;2023-04-29T14:03:52;22.90;73.00
31038;DHT22;17702;47.590;7.666;2023-04-29T14:06:17;22.80;73.50
31038;DHT22;17702;47.590;7.666;2023-04-29T14:08:43;22.80;73.60
31038;DHT22;17702;47.590;7.666;2023-04-29T14:11:08;22.70;72.90
31038;DHT22;17702;47.590;7.666;2023-04-29T14:13:34;22.60;71.50
31038;DHT22;17702;47.590;7.666;2023-04-29T14:16:00;22.60;73.80
31038;DHT22;17702;47.590;7.666;2023-04-29T14:18:27;22.50;74.40
31038;DHT22;17702;47.590;7.666;2023-04-29T14:20:54;22.50;75.60
31038;DHT22;17702;47.590;7.666;2023-04-29T14:23:19;22.50;73.70
31038;DHT22;17702;47.590;7.666;2023-04-29T14:25:45;22.60;73.70
31038;DHT22;17702;47.590;7.666;2023-04-29T14:28:11;22.70;71.80
31038;DHT22;17702;47.590;7.666;2023-04-29T14:30:37;22.80;72.80
31038;DHT22;17702;47.590;7.666;2023-04-29T14:33:02;22.80;72.50
31038;DHT22;17702;47.590;7.666;2023-04-29T14:35:28;22.80;72.40
31038;DHT22;17702;47.590;7.666;2023-04-29T14:37:55;22.70;73.70
31038;DHT22;17702;47.590;7.666;2023-04-29T14:40:20;22.70;71.50
31038;DHT22;17702;47.590;7.666;2023-04-29T14:42:46;22.60;72.80
31038;DHT22;17702;47.590;7.666;2023-04-29T14:45:11;22.50;71.90
31038;DHT22;17702;47.590;7.666;2023-04-29T14:47:37;22.30;71.50
31038;DHT22;17702;47.590;7.666;2023-04-29T14:50:03;22.30;71.60
31038;DHT22;17702;47.590;7.666;2023-04-29T14:52:29;22.30;72.70
31038;DHT22;17702;47.590;7.666;2023-04-29T14:54:54;22.20;74.60
31038;DHT22;17702;47.590;7.666;2023-04-29T14:57:20;22.20;75.10
31038;DHT22;17702;47.590;7.666;2023-04-29T14:59:46;22.10;74.80
31038;DHT22;17702;47.590;7.666;2023-04-29T15:02:11;22.10;73.80
31038;DHT22;17702;47.590;7.666;2023-04-29T15:04:37;22.10;74.90
31038;DHT22;17702;47.590;7.666;2023-04-29T15:07:03;22.00;73.70
31038;DHT22;17702;47.590;7.666;2023-04-29T15:09:30;22.00;74.20
31038;DHT22;17702;47.590;7.666;2023-04-29T15:11:56;21.90;75.30
31038;DHT22;17702;47.590;7.666;2023-04-29T15:14:21;21.80;76.10
31038;DHT22;17702;47.590;7.666;2023-04-29T15:16:47;21.80;76.60
31038;DHT22;17702;47.590;7.666;2023-04-29T15:19:13;21.70;75.00
31038;DHT22;17702;47.590;7.666;2023-04-29T15:21:38;21.60;74.00
31038;DHT22;17702;47.590;7.666;2023-04-29T15:24:04;21.50;75.70
31038;DHT22;17702;47.590;7.666;2023-04-29T15:26:31;21.50;75.70
31038;DHT22;17702;47.590;7.666;2023-04-29T15:28:57;21.40;75.50
31038;DHT22;17702;47.590;7.666;2023-04-29T15:31:22;21.40;75.10
31038;DHT22;17702;47.590;7.666;2023-04-29T15:33:49;21.40;76.70
31038;DHT22;17702;47.590;7.666;2023-04-29T15:36:17;21.30;76.40
31038;DHT22;17702;47.590;7.666;2023-04-29T15:38:42;21.20;77.30
31038;DHT22;17702;47.590;7.666;2023-04-29T15:41:08;21.20;77.80
31038;DHT22;17702;47.590;7.666;2023-04-29T15:43:33;21.10;77.50
31038;DHT22;17702;47.590;7.666;2023-04-29T15:45:59;21.00;78.30
31038;DHT22;17702;47.590;7.666;2023-04-29T15:48:25;21.00;79.30